Current Weather Conditions: station 63103

sailwx.info

Wind from 260 at 29 knots

Wave height 5.5 meters (18 feet), 8 second period

Air temperature 6.6° C
Dewpoint -0.5° C

Last reported at 2020-Jan-24 10:00 UTC.
Time now 2020-Jan-24 11:53 UTC

Location: N 61°12' E 001°06'.
View on Google Maps.

See reports from other nearby stations

  
Tides and Currents Weather Stations Pressure Air Temp Water Temp Dewpoint Dewpoint Depression Visibility Wind Speed Wind Dir Waves Ship Positions
date/time (UTC)wind fromknots sea level pressurealtimeterstation pressurevisibilityair tempwater tempwave heightnotes
2020-Jan-24 10:00 260 29 6.6 5.5
2020-Jan-24 09:00 250 29 6.8 5.6
2020-Jan-24 08:00 250 29 6.8 5.4
2020-Jan-24 07:00 250 31 6.9 5.3
2020-Jan-24 06:00 250 27 6.1 5.5
2020-Jan-24 05:00 260 32 6.6 4.9
2020-Jan-24 04:00 250 29 6.6 5.0
2020-Jan-24 03:00 260 26 5.0 4.4
2020-Jan-24 02:00 250 25 6.6 5.0
2020-Jan-24 01:00 260 22 7.0 5.1
2020-Jan-24 00:00 250 20 5.6 4.8
2020-Jan-23 23:00 260 26 7.0 4.9
2020-Jan-23 22:00 270 18 6.4 4.7
2020-Jan-23 21:00 260 27 7.3 4.8
2020-Jan-23 20:00 260 22 6.5 4.4
2020-Jan-23 19:00 260 27 7.7 4.2
2020-Jan-23 18:00 270 22 7.8 4.0
2020-Jan-23 17:00 270 20 7.0 4.0
2020-Jan-23 16:00 250 25 8.0 3.8
2020-Jan-23 15:00 250 22 8.4 3.8
2020-Jan-23 14:00 250 27 9.0 4.0
2020-Jan-23 13:00 250 24 8.8 4.1
2020-Jan-23 12:00 250 22 7.7 4.2
2020-Jan-23 11:00 240 29 8.9 3.9
2020-Jan-23 10:00 240 31 9.0 4.0
2020-Jan-23 09:00 230 31 8.9 4.1
2020-Jan-23 08:00 230 29 8.8 4.0
2020-Jan-23 07:00 230 32 9.0 3.9
2020-Jan-23 06:00 230 33 9.0 3.6
2020-Jan-23 05:00 230 29 8.6 3.4
2020-Jan-23 04:00 230 28 8.6 3.2
2020-Jan-23 03:00 240 26 8.6 3.2
2020-Jan-23 02:00 240 26 8.9 3.2
2020-Jan-23 01:00 240 26 8.6 3.0
2020-Jan-23 00:00 240 24 8.8 2.9
2020-Jan-22 23:00 240 24 8.6 2.6
2020-Jan-22 22:00 240 25 8.6 2.7
2020-Jan-22 21:00 230 22 8.9 2.8
2020-Jan-22 20:00 220 21 8.8 2.9
2020-Jan-22 19:00 220 18 8.6 2.9
2020-Jan-22 18:00 210 20 8.3 2.8
2020-Jan-22 17:00 200 22 7.8 3.0
2020-Jan-22 16:00 190 20 7.4 2.9
2020-Jan-22 15:00 200 18 7.8 3.3
2020-Jan-22 14:00 200 15 7.7 3.1
2020-Jan-22 13:00 210 11 7.7 3.3
2020-Jan-22 12:00 190 8 7.6 3.3